sensor_id;sensor_type;location;lat;lon;timestamp;temperature;humidity
42885;DHT22;28534;48.100;11.584;2022-12-07T04:02:53;19.60;60.40
42885;DHT22;28534;48.100;11.584;2022-12-07T04:07:54;19.70;60.30
42885;DHT22;28534;48.100;11.584;2022-12-07T04:12:56;19.70;60.20
42885;DHT22;28534;48.100;11.584;2022-12-07T04:17:59;19.70;60.20
42885;DHT22;28534;48.100;11.584;2022-12-07T04:23:04;19.80;60.10
42885;DHT22;28534;48.100;11.584;2022-12-07T04:28:06;19.80;60.00
42885;DHT22;28534;48.100;11.584;2022-12-07T04:33:09;19.90;60.90
42885;DHT22;28534;48.100;11.584;2022-12-07T04:38:11;19.90;59.90
42885;DHT22;28534;48.100;11.584;2022-12-07T04:43:12;19.90;59.90
42885;DHT22;28534;48.100;11.584;2022-12-07T04:48:16;20.00;60.70
42885;DHT22;28534;48.100;11.584;2022-12-07T04:53:17;20.00;59.90
42885;DHT22;28534;48.100;11.584;2022-12-07T04:58:19;20.00;59.90
42885;DHT22;28534;48.100;11.584;2022-12-07T05:03:22;20.10;59.80
42885;DHT22;28534;48.100;11.584;2022-12-07T05:08:24;20.10;59.80
42885;DHT22;28534;48.100;11.584;2022-12-07T05:13:26;20.10;59.70
42885;DHT22;28534;48.100;11.584;2022-12-07T05:18:29;20.20;59.70
42885;DHT22;28534;48.100;11.584;2022-12-07T05:23:31;20.20;59.70
42885;DHT22;28534;48.100;11.584;2022-12-07T05:28:34;20.20;59.70
42885;DHT22;28534;48.100;11.584;2022-12-07T05:33:37;20.20;59.70
42885;DHT22;28534;48.100;11.584;2022-12-07T05:38:39;20.30;59.70
42885;DHT22;28534;48.100;11.584;2022-12-07T05:43:41;20.30;60.00
42885;DHT22;28534;48.100;11.584;2022-12-07T05:48:44;20.30;60.60
42885;DHT22;28534;48.100;11.584;2022-12-07T05:53:46;20.30;61.30
42885;DHT22;28534;48.100;11.584;2022-12-07T05:58:48;20.40;62.00
42885;DHT22;28534;48.100;11.584;2022-12-07T06:04:08;20.40;62.40
42885;DHT22;28534;48.100;11.584;2022-12-07T06:09:10;20.40;62.80
42885;DHT22;28534;48.100;11.584;2022-12-07T06:14:13;20.40;63.80
42885;DHT22;28534;48.100;11.584;2022-12-07T06:19:16;20.50;64.40
42885;DHT22;28534;48.100;11.584;2022-12-07T06:24:18;20.50;65.00
42885;DHT22;28534;48.100;11.584;2022-12-07T06:29:20;20.50;65.30
42885;DHT22;28534;48.100;11.584;2022-12-07T06:34:24;20.60;65.30
42885;DHT22;28534;48.100;11.584;2022-12-07T06:39:28;20.60;66.10
42885;DHT22;28534;48.100;11.584;2022-12-07T06:44:29;20.50;65.70
42885;DHT22;28534;48.100;11.584;2022-12-07T06:49:34;20.60;65.90
42885;DHT22;28534;48.100;11.584;2022-12-07T06:54:36;20.60;66.20
42885;DHT22;28534;48.100;11.584;2022-12-07T06:59:38;20.60;66.00
42885;DHT22;28534;48.100;11.584;2022-12-07T07:04:41;20.60;65.00
42885;DHT22;28534;48.100;11.584;2022-12-07T07:09:42;20.60;65.10
42885;DHT22;28534;48.100;11.584;2022-12-07T07:14:44;20.70;65.00
42885;DHT22;28534;48.100;11.584;2022-12-07T07:19:47;20.70;64.50
42885;DHT22;28534;48.100;11.584;2022-12-07T07:24:49;20.70;64.30
42885;DHT22;28534;48.100;11.584;2022-12-07T07:29:51;20.70;64.30
42885;DHT22;28534;48.100;11.584;2022-12-07T07:34:54;20.70;64.20
42885;DHT22;28534;48.100;11.584;2022-12-07T07:39:56;20.70;64.30
42885;DHT22;28534;48.100;11.584;2022-12-07T07:44:57;20.60;64.20
42885;DHT22;28534;48.100;11.584;2022-12-07T07:50:01;20.70;64.20
42885;DHT22;28534;48.100;11.584;2022-12-07T07:55:03;20.70;64.10
42885;DHT22;28534;48.100;11.584;2022-12-07T08:00:08;20.70;64.10
42885;DHT22;28534;48.100;11.584;2022-12-07T08:05:12;20.70;64.10
42885;DHT22;28534;48.100;11.584;2022-12-07T08:10:14;20.80;64.20
42885;DHT22;28534;48.100;11.584;2022-12-07T08:15:16;20.80;64.00
42885;DHT22;28534;48.100;11.584;2022-12-07T08:20:19;20.70;64.00
42885;DHT22;28534;48.100;11.584;2022-12-07T08:25:22;20.70;63.90
42885;DHT22;28534;48.100;11.584;2022-12-07T08:30:24;20.70;63.90
42885;DHT22;28534;48.100;11.584;2022-12-07T08:35:27;20.80;63.00
42885;DHT22;28534;48.100;11.584;2022-12-07T08:40:29;20.80;63.10
42885;DHT22;28534;48.100;11.584;2022-12-07T08:45:31;20.80;63.10
42885;DHT22;28534;48.100;11.584;2022-12-07T08:50:37;20.90;63.10
42885;DHT22;28534;48.100;11.584;2022-12-07T08:55:39;20.90;61.60
42885;DHT22;28534;48.100;11.584;2022-12-07T09:00:41;20.80;61.00
42885;DHT22;28534;48.100;11.584;2022-12-07T09:05:44;20.80;60.50
42885;DHT22;28534;48.100;11.584;2022-12-07T09:10:46;20.80;60.70
42885;DHT22;28534;48.100;11.584;2022-12-07T09:15:48;20.80;61.40
42885;DHT22;28534;48.100;11.584;2022-12-07T09:20:51;20.80;62.80
42885;DHT22;28534;48.100;11.584;2022-12-07T09:25:53;20.80;63.60
42885;DHT22;28534;48.100;11.584;2022-12-07T09:30:54;20.90;63.40
42885;DHT22;28534;48.100;11.584;2022-12-07T09:35:58;20.90;64.10
42885;DHT22;28534;48.100;11.584;2022-12-07T09:41:04;20.90;64.30
42885;DHT22;28534;48.100;11.584;2022-12-07T09:46:09;20.90;64.70
42885;DHT22;28534;48.100;11.584;2022-12-07T09:51:16;20.90;64.80
42885;DHT22;28534;48.100;11.584;2022-12-07T09:56:19;20.90;65.00
42885;DHT22;28534;48.100;11.584;2022-12-07T10:01:22;20.90;64.80
42885;DHT22;28534;48.100;11.584;2022-12-07T10:06:25;20.90;63.80
42885;DHT22;28534;48.100;11.584;2022-12-07T10:11:26;20.90;63.30
42885;DHT22;28534;48.100;11.584;2022-12-07T10:16:35;20.90;63.90
42885;DHT22;28534;48.100;11.584;2022-12-07T10:21:39;20.90;64.20
42885;DHT22;28534;48.100;11.584;2022-12-07T10:26:48;21.00;64.60
42885;DHT22;28534;48.100;11.584;2022-12-07T10:31:55;20.90;64.10
42885;DHT22;28534;48.100;11.584;2022-12-07T10:37:16;20.90;64.20
42885;DHT22;28534;48.100;11.584;2022-12-07T10:42:20;20.90;64.60
42885;DHT22;28534;48.100;11.584;2022-12-07T10:47:32;20.90;65.20
42885;DHT22;28534;48.100;11.584;2022-12-07T10:52:48;20.60;51.20
42885;DHT22;28534;48.100;11.584;2022-12-07T10:58:12;19.80;51.40
42885;DHT22;28534;48.100;11.584;2022-12-07T11:03:29;19.60;49.50
42885;DHT22;28534;48.100;11.584;2022-12-07T11:08:48;20.00;50.10
42885;DHT22;28534;48.100;11.584;2022-12-07T11:13:59;20.20;50.70
42885;DHT22;28534;48.100;11.584;2022-12-07T11:19:16;20.40;51.70
42885;DHT22;28534;48.100;11.584;2022-12-07T11:24:27;20.40;52.50
42885;DHT22;28534;48.100;11.584;2022-12-07T11:29:45;20.60;53.30
42885;DHT22;28534;48.100;11.584;2022-12-07T11:34:59;20.70;53.70
42885;DHT22;28534;48.100;11.584;2022-12-07T11:40:15;20.70;54.20
42885;DHT22;28534;48.100;11.584;2022-12-07T11:45:22;20.80;55.10
42885;DHT22;28534;48.100;11.584;2022-12-07T11:50:29;20.80;55.60
42885;DHT22;28534;48.100;11.584;2022-12-07T11:55:41;20.80;56.00
42885;DHT22;28534;48.100;11.584;2022-12-07T12:00:44;20.80;56.30
42885;DHT22;28534;48.100;11.584;2022-12-07T12:05:45;20.80;56.60
42885;DHT22;28534;48.100;11.584;2022-12-07T12:10:55;20.80;56.80
42885;DHT22;28534;48.100;11.584;2022-12-07T12:16:11;20.80;57.00
42885;DHT22;28534;48.100;11.584;2022-12-07T12:21:17;20.90;57.30
42885;DHT22;28534;48.100;11.584;2022-12-07T12:26:21;20.90;57.50
42885;DHT22;28534;48.100;11.584;2022-12-07T12:31:36;20.90;57.70
42885;DHT22;28534;48.100;11.584;2022-12-07T12:36:46;20.90;57.90
42885;DHT22;28534;48.100;11.584;2022-12-07T12:41:57;20.90;58.00
42885;DHT22;28534;48.100;11.584;2022-12-07T12:47:42;20.90;58.20
42885;DHT22;28534;48.100;11.584;2022-12-07T12:53:03;20.90;58.30
42885;DHT22;28534;48.100;11.584;2022-12-07T12:58:36;20.90;58.40
42885;DHT22;28534;48.100;11.584;2022-12-07T13:03:38;20.90;58.60
42885;DHT22;28534;48.100;11.584;2022-12-07T13:08:41;20.90;58.60
42885;DHT22;28534;48.100;11.584;2022-12-07T13:13:44;20.90;58.70
42885;DHT22;28534;48.100;11.584;2022-12-07T13:18:46;20.90;58.80
42885;DHT22;28534;48.100;11.584;2022-12-07T13:23:54;21.00;58.90
42885;DHT22;28534;48.100;11.584;2022-12-07T13:29:07;20.90;58.90
42885;DHT22;28534;48.100;11.584;2022-12-07T13:34:29;20.90;59.00
42885;DHT22;28534;48.100;11.584;2022-12-07T13:39:33;21.00;59.20
42885;DHT22;28534;48.100;11.584;2022-12-07T13:44:40;20.90;59.00
42885;DHT22;28534;48.100;11.584;2022-12-07T13:49:47;20.90;59.10
42885;DHT22;28534;48.100;11.584;2022-12-07T13:54:56;20.90;59.40
42885;DHT22;28534;48.100;11.584;2022-12-07T14:00:00;20.90;59.40
42885;DHT22;28534;48.100;11.584;2022-12-07T14:05:12;20.90;59.40
42885;DHT22;28534;48.100;11.584;2022-12-07T14:10:26;20.90;59.50
42885;DHT22;28534;48.100;11.584;2022-12-07T14:15:31;20.90;59.80
42885;DHT22;28534;48.100;11.584;2022-12-07T14:20:36;20.90;60.00
42885;DHT22;28534;48.100;11.584;2022-12-07T14:25:48;20.90;60.00
42885;DHT22;28534;48.100;11.584;2022-12-07T14:30:52;21.00;60.70
42885;DHT22;28534;48.100;11.584;2022-12-07T14:35:54;21.00;60.60
42885;DHT22;28534;48.100;11.584;2022-12-07T14:40:56;20.90;60.70
42885;DHT22;28534;48.100;11.584;2022-12-07T14:46:20;20.90;60.80
42885;DHT22;28534;48.100;11.584;2022-12-07T14:51:22;20.90;61.20
42885;DHT22;28534;48.100;11.584;2022-12-07T14:56:24;20.90;61.20
42885;DHT22;28534;48.100;11.584;2022-12-07T15:01:27;20.90;61.30
42885;DHT22;28534;48.100;11.584;2022-12-07T15:06:29;21.00;61.20
42885;DHT22;28534;48.100;11.584;2022-12-07T15:11:31;21.00;61.20
42885;DHT22;28534;48.100;11.584;2022-12-07T15:16:34;21.00;61.50
42885;DHT22;28534;48.100;11.584;2022-12-07T15:21:36;21.00;61.30
42885;DHT22;28534;48.100;11.584;2022-12-07T15:26:39;21.00;61.20
42885;DHT22;28534;48.100;11.584;2022-12-07T15:31:42;21.00;61.20
42885;DHT22;28534;48.100;11.584;2022-12-07T15:36:44;21.00;61.00
42885;DHT22;28534;48.100;11.584;2022-12-07T15:41:46;20.90;60.90
42885;DHT22;28534;48.100;11.584;2022-12-07T15:46:49;20.90;60.90
42885;DHT22;28534;48.100;11.584;2022-12-07T15:51:51;21.00;61.10
42885;DHT22;28534;48.100;11.584;2022-12-07T15:56:53;21.00;61.00
42885;DHT22;28534;48.100;11.584;2022-12-07T16:01:57;20.90;60.90
42885;DHT22;28534;48.100;11.584;2022-12-07T16:06:59;20.90;61.10
42885;DHT22;28534;48.100;11.584;2022-12-07T16:12:00;20.90;61.60
42885;DHT22;28534;48.100;11.584;2022-12-07T16:17:03;21.00;62.60
42885;DHT22;28534;48.100;11.584;2022-12-07T16:22:05;21.00;63.30
42885;DHT22;28534;48.100;11.584;2022-12-07T16:27:07;21.10;67.30
42885;DHT22;28534;48.100;11.584;2022-12-07T16:32:10;21.10;67.30
42885;DHT22;28534;48.100;11.584;2022-12-07T16:37:12;21.10;67.10
42885;DHT22;28534;48.100;11.584;2022-12-07T16:42:14;21.10;66.50
42885;DHT22;28534;48.100;11.584;2022-12-07T16:47:17;21.10;62.10
42885;DHT22;28534;48.100;11.584;2022-12-07T16:52:19;21.10;60.80
42885;DHT22;28534;48.100;11.584;2022-12-07T16:57:21;21.10;61.40
42885;DHT22;28534;48.100;11.584;2022-12-07T17:02:24;21.10;62.20
42885;DHT22;28534;48.100;11.584;2022-12-07T17:07:25;21.10;62.60
42885;DHT22;28534;48.100;11.584;2022-12-07T17:12:27;21.10;62.90
42885;DHT22;28534;48.100;11.584;2022-12-07T17:17:30;21.10;60.90
42885;DHT22;28534;48.100;11.584;2022-12-07T17:22:32;21.00;59.90
42885;DHT22;28534;48.100;11.584;2022-12-07T17:27:34;21.00;59.50
42885;DHT22;28534;48.100;11.584;2022-12-07T17:32:37;21.00;59.60
42885;DHT22;28534;48.100;11.584;2022-12-07T17:37:39;21.00;59.60
42885;DHT22;28534;48.100;11.584;2022-12-07T17:42:41;21.00;59.60
42885;DHT22;28534;48.100;11.584;2022-12-07T17:47:48;21.00;59.60
42885;DHT22;28534;48.100;11.584;2022-12-07T17:52:50;20.90;60.10
42885;DHT22;28534;48.100;11.584;2022-12-07T17:58:10;20.90;60.30
42885;DHT22;28534;48.100;11.584;2022-12-07T18:03:13;20.90;60.50
42885;DHT22;28534;48.100;11.584;2022-12-07T18:08:15;20.90;60.60
42885;DHT22;28534;48.100;11.584;2022-12-07T18:13:16;20.80;60.60
42885;DHT22;28534;48.100;11.584;2022-12-07T18:18:38;20.80;60.70
42885;DHT22;28534;48.100;11.584;2022-12-07T18:23:40;20.70;60.90
42885;DHT22;28534;48.100;11.584;2022-12-07T18:28:43;20.70;61.30
42885;DHT22;28534;48.100;11.584;2022-12-07T18:33:47;20.70;61.10
42885;DHT22;28534;48.100;11.584;2022-12-07T18:38:49;20.70;60.80
42885;DHT22;28534;48.100;11.584;2022-12-07T18:43:51;20.70;61.20
42885;DHT22;28534;48.100;11.584;2022-12-07T18:48:54;20.60;61.60
42885;DHT22;28534;48.100;11.584;2022-12-07T18:53:57;20.60;61.80
42885;DHT22;28534;48.100;11.584;2022-12-07T18:59:01;20.60;61.50
42885;DHT22;28534;48.100;11.584;2022-12-07T19:04:22;20.60;61.50
42885;DHT22;28534;48.100;11.584;2022-12-07T19:09:23;20.60;61.80
42885;DHT22;28534;48.100;11.584;2022-12-07T19:14:27;20.60;62.10
42885;DHT22;28534;48.100;11.584;2022-12-07T19:19:33;20.60;62.30
42885;DHT22;28534;48.100;11.584;2022-12-07T19:24:35;20.50;62.60
42885;DHT22;28534;48.100;11.584;2022-12-07T19:29:37;20.50;62.60
42885;DHT22;28534;48.100;11.584;2022-12-07T19:34:42;20.50;62.70
42885;DHT22;28534;48.100;11.584;2022-12-07T19:39:44;20.50;62.80
42885;DHT22;28534;48.100;11.584;2022-12-07T19:44:47;20.50;62.90
42885;DHT22;28534;48.100;11.584;2022-12-07T19:49:50;20.50;63.00
42885;DHT22;28534;48.100;11.584;2022-12-07T19:54:52;20.00;46.80
42885;DHT22;28534;48.100;11.584;2022-12-07T19:59:54;20.00;50.70
42885;DHT22;28534;48.100;11.584;2022-12-07T20:04:57;20.10;53.90
42885;DHT22;28534;48.100;11.584;2022-12-07T20:09:59;20.10;54.70
42885;DHT22;28534;48.100;11.584;2022-12-07T20:15:01;20.10;55.40
42885;DHT22;28534;48.100;11.584;2022-12-07T20:20:06;20.10;55.70
42885;DHT22;28534;48.100;11.584;2022-12-07T20:25:08;20.20;56.10
42885;DHT22;28534;48.100;11.584;2022-12-07T20:30:10;20.20;56.40
42885;DHT22;28534;48.100;11.584;2022-12-07T20:35:13;20.10;56.70
42885;DHT22;28534;48.100;11.584;2022-12-07T20:40:15;20.10;56.90
42885;DHT22;28534;48.100;11.584;2022-12-07T20:45:17;20.10;57.20
42885;DHT22;28534;48.100;11.584;2022-12-07T20:50:20;20.10;57.40
42885;DHT22;28534;48.100;11.584;2022-12-07T20:55:22;20.10;57.60
42885;DHT22;28534;48.100;11.584;2022-12-07T21:00:24;20.10;57.80
42885;DHT22;28534;48.100;11.584;2022-12-07T21:05:27;20.10;58.00
42885;DHT22;28534;48.100;11.584;2022-12-07T21:10:29;20.10;58.20
42885;DHT22;28534;48.100;11.584;2022-12-07T21:15:31;20.10;58.30
42885;DHT22;28534;48.100;11.584;2022-12-07T21:20:34;20.10;58.50
42885;DHT22;28534;48.100;11.584;2022-12-07T21:25:36;20.10;58.60
42885;DHT22;28534;48.100;11.584;2022-12-07T21:30:38;20.10;58.70
42885;DHT22;28534;48.100;11.584;2022-12-07T21:35:41;20.00;58.70
42885;DHT22;28534;48.100;11.584;2022-12-07T21:40:43;20.00;58.80
42885;DHT22;28534;48.100;11.584;2022-12-07T21:45:49;20.00;58.90
42885;DHT22;28534;48.100;11.584;2022-12-07T21:50:52;20.00;59.00
42885;DHT22;28534;48.100;11.584;2022-12-07T21:55:54;20.00;59.00
